Time;durP1;ratioP1;P1;durP2;ratioP2;P2;SDS_P1;SDS_P2;PMS_P1;PMS_P2;Temp;Humidity;BMP_temperature;BMP_pressure;BME280_temperature;BME280_humidity;BME280_pressure;Samples;Min_cycle;Max_cycle;Signal;HPM_P1;HPM_P2
2021/03/26 00:00:46;;;;;;;55.50;26.52;;;8.30;78.80;;;;;;4915227;29;20103;-66
2021/03/26 00:03:16;;;;;;;61.13;27.40;;;8.30;79.20;;;;;;4900862;29;20123;-65
2021/03/26 00:05:43;;;;;;;59.97;28.00;;;8.30;79.30;;;;;;4904265;29;20132;-65
2021/03/26 00:08:11;;;;;;;60.65;26.63;;;8.30;78.70;;;;;;4906750;29;20023;-66
2021/03/26 00:10:37;;;;;;;56.53;27.02;;;8.20;78.10;;;;;;4908821;29;20082;-65
2021/03/26 00:13:02;;;;;;;58.08;28.13;;;8.20;78.30;;;;;;4925362;29;20119;-65
2021/03/26 00:15:28;;;;;;;55.75;26.52;;;8.10;78.60;;;;;;4910144;29;20036;-66
2021/03/26 00:17:54;;;;;;;59.00;29.13;;;8.00;79.00;;;;;;4916111;29;20082;-65
2021/03/26 00:20:20;;;;;;;60.60;29.42;;;8.00;79.40;;;;;;4934437;29;20052;-66
2021/03/26 00:22:46;;;;;;;59.67;28.05;;;8.00;79.30;;;;;;4912894;29;20115;-64
2021/03/26 00:25:11;;;;;;;61.45;26.67;;;7.90;79.30;;;;;;4904002;29;20040;-65
2021/03/26 00:27:37;;;;;;;60.35;25.98;;;7.90;79.60;;;;;;4905316;29;20044;-66
2021/03/26 00:30:06;;;;;;;58.15;27.67;;;7.90;78.80;;;;;;4907909;29;20091;-66
2021/03/26 00:32:33;;;;;;;54.50;26.45;;;7.80;78.40;;;;;;4907177;29;20032;-65
2021/03/26 00:34:59;;;;;;;65.30;30.27;;;7.80;78.50;;;;;;4908770;29;20831;-66
2021/03/26 00:37:25;;;;;;;56.83;26.95;;;7.80;79.30;;;;;;4912588;29;20072;-65
2021/03/26 00:39:50;;;;;;;66.32;29.40;;;7.80;80.00;;;;;;4914253;29;20127;-65
2021/03/26 00:42:17;;;;;;;61.40;29.77;;;7.80;79.50;;;;;;4916097;29;20040;-66
2021/03/26 00:44:43;;;;;;;65.30;27.98;;;7.90;79.20;;;;;;4931586;29;20143;-65
2021/03/26 00:47:09;;;;;;;61.80;27.95;;;8.00;79.00;;;;;;4918669;29;20031;-65
2021/03/26 00:49:35;;;;;;;54.50;24.98;;;8.00;78.60;;;;;;4920490;29;20658;-65
2021/03/26 00:52:02;;;;;;;68.13;29.35;;;8.00;79.00;;;;;;4920075;29;20075;-65
2021/03/26 00:54:27;;;;;;;58.15;26.92;;;8.00;79.20;;;;;;4932769;29;20184;-66
2021/03/26 00:56:53;;;;;;;54.92;27.83;;;8.00;78.70;;;;;;4929639;28;20035;-65
2021/03/26 00:59:19;;;;;;;56.47;26.40;;;8.10;78.20;;;;;;4914407;29;20045;-65
2021/03/26 01:01:45;;;;;;;51.35;26.65;;;8.10;78.30;;;;;;4905192;29;20037;-65
2021/03/26 01:04:11;;;;;;;50.30;24.20;;;8.10;78.40;;;;;;4912221;29;20508;-66
2021/03/26 01:06:36;;;;;;;48.97;24.05;;;8.10;79.00;;;;;;4913052;29;20024;-65
2021/03/26 01:09:04;;;;;;;48.03;23.67;;;8.10;79.50;;;;;;4914655;29;20452;-65
2021/03/26 01:11:33;;;;;;;60.17;26.38;;;8.20;79.80;;;;;;4917214;29;20094;-65
2021/03/26 01:14:02;;;;;;;49.65;24.10;;;8.20;80.00;;;;;;4933262;29;20066;-65
2021/03/26 01:16:28;;;;;;;55.40;24.88;;;8.20;79.80;;;;;;4920057;29;20655;-65
2021/03/26 01:18:57;;;;;;;50.60;24.27;;;8.30;79.80;;;;;;4933395;29;20047;-66
2021/03/26 01:21:28;;;;;;;50.97;23.83;;;8.30;79.50;;;;;;4917644;29;20036;-65
2021/03/26 01:23:55;;;;;;;52.55;23.50;;;8.30;79.20;;;;;;4881167;29;20119;-65
2021/03/26 01:26:21;;;;;;;51.55;24.98;;;8.30;78.60;;;;;;4906378;29;20509;-66
2021/03/26 01:28:55;;;;;;;45.22;22.42;;;8.40;78.40;;;;;;4911040;29;20040;-65
2021/03/26 01:31:28;;;;;;;45.25;21.90;;;8.40;78.00;;;;;;4901362;29;20134;-65
2021/03/26 01:33:54;;;;;;;46.90;23.38;;;8.40;77.80;;;;;;4912538;29;20962;-66
2021/03/26 01:36:22;;;;;;;50.00;23.90;;;8.40;77.40;;;;;;4901608;29;20044;-65
2021/03/26 01:38:48;;;;;;;47.70;23.00;;;8.40;77.50;;;;;;4917570;29;20032;-65
2021/03/26 01:41:33;;;;;;;49.90;24.05;;;8.40;77.70;;;;;;4933251;29;20612;-65
2021/03/26 01:44:01;;;;;;;53.25;24.80;;;8.40;78.40;;;;;;4934292;29;20677;-65
2021/03/26 01:46:27;;;;;;;51.88;24.35;;;8.40;79.10;;;;;;4932027;28;20032;-65
2021/03/26 01:48:59;;;;;;;50.28;23.25;;;8.40;79.00;;;;;;4915475;29;20748;-65
2021/03/26 01:51:33;;;;;;;44.70;21.48;;;8.40;78.10;;;;;;4903629;29;20067;-65
2021/03/26 01:54:02;;;;;;;46.53;22.60;;;8.40;77.20;;;;;;4900624;29;20614;-65
2021/03/26 01:56:30;;;;;;;49.15;22.45;;;8.40;77.00;;;;;;4908061;29;20032;-65
2021/03/26 01:59:21;;;;;;;49.08;22.90;;;8.40;77.80;;;;;;4923079;29;20072;-65
2021/03/26 02:01:54;;;;;;;46.35;23.67;;;8.40;78.30;;;;;;4907099;29;20044;-65
2021/03/26 02:04:33;;;;;;;44.00;22.50;;;8.40;78.80;;;;;;4903218;29;20114;-65
2021/03/26 02:07:20;;;;;;;46.72;22.98;;;8.50;79.00;;;;;;4902606;29;20536;-65
2021/03/26 02:09:46;;;;;;;52.75;26.10;;;8.50;79.20;;;;;;4899265;29;20043;-65
2021/03/26 02:12:26;;;;;;;48.47;24.42;;;8.60;79.50;;;;;;4903029;29;20055;-65
2021/03/26 02:14:59;;;;;;;64.50;28.83;;;8.60;79.80;;;;;;4903140;29;20040;-65
2021/03/26 02:17:29;;;;;;;57.55;29.15;;;8.60;80.60;;;;;;4902585;29;20040;-65
2021/03/26 02:20:03;;;;;;;44.65;23.23;;;8.60;80.90;;;;;;4899608;29;20040;-66
2021/03/26 02:22:33;;;;;;;55.17;25.67;;;8.60;79.50;;;;;;4908202;29;20060;-65
2021/03/26 02:25:00;;;;;;;48.80;24.48;;;8.60;78.90;;;;;;4926510;29;20496;-65
2021/03/26 02:27:30;;;;;;;48.03;24.83;;;8.60;78.30;;;;;;4905449;29;20040;-66
2021/03/26 02:29:59;;;;;;;56.70;27.35;;;8.60;78.20;;;;;;4905152;29;20042;-65
2021/03/26 02:32:41;;;;;;;50.70;25.45;;;8.50;78.80;;;;;;4888812;29;20035;-66
2021/03/26 02:35:32;;;;;;;52.78;24.98;;;8.50;78.60;;;;;;4900025;29;20059;-65
2021/03/26 02:38:31;;;;;;;51.90;24.25;;;8.40;78.60;;;;;;4902511;29;20150;-66
2021/03/26 02:41:15;;;;;;;44.75;22.85;;;8.40;78.50;;;;;;4900776;29;20039;-65
2021/03/26 02:44:01;;;;;;;50.67;24.88;;;8.40;79.00;;;;;;4911172;29;20214;-65
2021/03/26 02:46:48;;;;;;;47.65;25.33;;;8.30;79.20;;;;;;4909870;29;20970;-66
2021/03/26 02:49:25;;;;;;;47.15;24.10;;;8.40;78.60;;;;;;4907467;29;20093;-65
2021/03/26 02:51:59;;;;;;;51.15;25.70;;;8.40;78.60;;;;;;4910438;29;20095;-65
2021/03/26 02:54:49;;;;;;;55.67;25.55;;;8.40;79.00;;;;;;4903920;29;20880;-65
2021/03/26 02:57:25;;;;;;;53.08;26.85;;;8.40;78.50;;;;;;4909864;29;20031;-65
2021/03/26 02:59:57;;;;;;;49.53;24.70;;;8.40;78.30;;;;;;4930681;29;20155;-65
2021/03/26 03:02:25;;;;;;;44.22;23.00;;;8.40;78.20;;;;;;4918567;29;20340;-65
2021/03/26 03:05:28;;;;;;;52.05;24.92;;;8.50;78.70;;;;;;4930780;29;20034;-66
2021/03/26 03:08:06;;;;;;;45.15;24.33;;;8.50;79.20;;;;;;4885799;29;20462;-65
2021/03/26 03:10:41;;;;;;;49.83;25.35;;;8.50;79.20;;;;;;4905438;29;20036;-65
2021/03/26 03:13:32;;;;;;;50.75;25.67;;;8.60;79.60;;;;;;4904696;29;20035;-65
2021/03/26 03:16:18;;;;;;;48.30;23.92;;;8.60;79.80;;;;;;4906414;29;20036;-65
2021/03/26 03:19:01;;;;;;;52.28;26.13;;;8.70;79.90;;;;;;4910594;29;20043;-65
2021/03/26 03:21:33;;;;;;;44.92;23.77;;;8.70;80.10;;;;;;4904888;29;20042;-65
2021/03/26 03:24:15;;;;;;;52.17;25.13;;;8.70;79.60;;;;;;4914399;29;20094;-65
2021/03/26 03:27:25;;;;;;;47.20;24.10;;;8.80;79.30;;;;;;4915344;29;20038;-66
2021/03/26 03:29:54;;;;;;;48.45;24.08;;;8.80;79.80;;;;;;4888388;29;20151;-65
2021/03/26 03:32:33;;;;;;;48.50;23.05;;;8.80;79.20;;;;;;4916109;29;20043;-65
2021/03/26 03:35:13;;;;;;;49.85;25.02;;;8.80;79.40;;;;;;4928726;29;20036;-65
2021/03/26 03:38:01;;;;;;;50.45;25.58;;;8.80;79.20;;;;;;4912610;29;20047;-65
2021/03/26 03:40:30;;;;;;;54.40;25.13;;;8.80;78.50;;;;;;4925216;29;20035;-65
2021/03/26 03:43:10;;;;;;;45.78;22.52;;;8.80;78.10;;;;;;4909231;29;20703;-66
2021/03/26 03:45:44;;;;;;;50.30;23.27;;;8.80;78.40;;;;;;4904324;29;20040;-65
2021/03/26 03:48:45;;;;;;;52.90;24.65;;;8.80;78.70;;;;;;4926856;29;20062;-65
2021/03/26 03:51:23;;;;;;;48.53;23.67;;;8.80;79.00;;;;;;4907498;29;20161;-65
2021/03/26 03:53:55;;;;;;;45.53;24.40;;;8.80;79.10;;;;;;4904554;29;20036;-65
2021/03/26 03:56:42;;;;;;;44.60;22.65;;;8.80;78.90;;;;;;4905864;29;20036;-65
2021/03/26 03:59:16;;;;;;;46.13;23.60;;;8.80;78.70;;;;;;4906682;29;20031;-65
2021/03/26 04:02:10;;;;;;;50.22;24.27;;;8.90;78.90;;;;;;4913741;29;20043;-60
2021/03/26 04:04:59;;;;;;;43.20;22.20;;;8.90;78.90;;;;;;4899616;29;20043;-60
2021/03/26 04:07:32;;;;;;;47.20;23.17;;;8.90;79.10;;;;;;4885079;29;20361;-60
2021/03/26 04:10:09;;;;;;;48.35;23.45;;;8.90;78.90;;;;;;4913819;29;20035;-60
2021/03/26 04:12:40;;;;;;;50.80;24.40;;;9.00;78.70;;;;;;4917510;29;20035;-60
2021/03/26 04:15:35;;;;;;;47.65;23.83;;;8.90;78.70;;;;;;4913616;29;20115;-60
2021/03/26 04:18:17;;;;;;;47.88;23.35;;;9.00;79.10;;;;;;4904235;29;20098;-60
2021/03/26 04:21:11;;;;;;;44.60;23.88;;;8.90;80.00;;;;;;4916972;29;20094;-60
2021/03/26 04:24:12;;;;;;;47.08;24.35;;;8.90;80.90;;;;;;4903652;29;20024;-65
2021/03/26 04:27:17;;;;;;;47.83;24.73;;;8.90;81.30;;;;;;4907893;29;20131;-65
2021/03/26 04:30:14;;;;;;;;;;;9.00;82.20;;;;;;4909613;29;20043;-65
2021/03/26 04:32:49;;;;;;;59.15;26.38;;;9.00;81.30;;;;;;4930104;29;19918;-65
2021/03/26 04:35:17;;;;;;;56.17;27.00;;;9.00;80.80;;;;;;4910367;29;20039;-65
2021/03/26 04:38:20;;;;;;;58.42;27.95;;;8.90;80.60;;;;;;4918841;29;20031;-65
2021/03/26 04:40:54;;;;;;;57.10;27.42;;;8.80;81.40;;;;;;4910359;29;20038;-64
2021/03/26 04:43:48;;;;;;;58.85;27.73;;;8.80;82.00;;;;;;4910082;29;20079;-66
2021/03/26 04:46:39;;;;;;;63.45;29.83;;;8.80;82.90;;;;;;4902319;29;20508;-65
2021/03/26 04:49:36;;;;;;;59.30;28.75;;;8.80;83.70;;;;;;4904500;29;20580;-65
2021/03/26 04:52:09;;;;;;;56.65;28.02;;;8.80;84.50;;;;;;4893521;29;20449;-65
2021/03/26 04:55:00;;;;;;;63.75;29.70;;;8.80;84.50;;;;;;4923376;29;20072;-64
2021/03/26 04:57:50;;;;;;;60.00;31.13;;;8.90;84.70;;;;;;4915122;29;20055;-66
2021/03/26 05:00:29;;;;;;;65.85;30.70;;;8.90;84.90;;;;;;4925573;29;20036;-66
2021/03/26 05:03:41;;;;;;;64.72;30.75;;;8.90;84.90;;;;;;4908907;29;20028;-65
2021/03/26 05:06:22;;;;;;;69.00;32.53;;;8.90;84.70;;;;;;4908497;29;20511;-65
2021/03/26 05:09:18;;;;;;;78.90;34.88;;;9.00;85.00;;;;;;4913513;29;20028;-65
2021/03/26 05:12:09;;;;;;;75.90;35.47;;;8.90;85.30;;;;;;4915807;29;20094;-65
2021/03/26 05:14:41;;;;;;;83.38;37.10;;;8.90;85.90;;;;;;4898377;29;20046;-65
2021/03/26 05:17:26;;;;;;;72.93;34.42;;;8.90;86.80;;;;;;4901452;29;20036;-66
2021/03/26 05:20:32;;;;;;;85.10;37.45;;;8.90;87.40;;;;;;4904997;29;20162;-65
2021/03/26 05:23:40;;;;;;;79.78;35.47;;;9.00;87.60;;;;;;4908573;29;20047;-65
2021/03/26 05:26:25;;;;;;;83.97;37.60;;;9.00;87.40;;;;;;4910104;29;20095;-65
2021/03/26 05:29:14;;;;;;;80.72;35.83;;;9.10;87.50;;;;;;4912876;29;20078;-65
2021/03/26 05:31:48;;;;;;;72.40;34.17;;;9.10;87.30;;;;;;4913425;29;20492;-66
2021/03/26 05:34:40;;;;;;;70.25;34.15;;;9.10;87.40;;;;;;4893037;29;20043;-66
2021/03/26 05:37:27;;;;;;;68.15;31.98;;;9.10;87.70;;;;;;4905847;29;20111;-65
2021/03/26 05:40:36;;;;;;;61.65;29.40;;;9.10;87.50;;;;;;4899502;29;20481;-65
2021/03/26 05:43:31;;;;;;;62.05;30.67;;;9.10;87.30;;;;;;4881353;29;20032;-66
2021/03/26 05:46:41;;;;;;;60.92;31.15;;;9.00;87.10;;;;;;4900561;29;20043;-68
2021/03/26 05:50:01;;;;;;;65.15;29.40;;;9.10;87.20;;;;;;4895528;29;20051;-67
2021/03/26 05:52:51;;;;;;;66.57;32.67;;;9.10;86.80;;;;;;4878439;29;20036;-66
2021/03/26 05:55:40;;;;;;;63.45;30.23;;;9.20;86.10;;;;;;4906607;29;20042;-66
2021/03/26 05:58:34;;;;;;;60.00;30.27;;;9.30;85.40;;;;;;4895782;29;20047;-66
2021/03/26 06:01:15;;;;;;;64.20;31.55;;;9.20;86.00;;;;;;4919060;29;20052;-66
2021/03/26 06:03:57;;;;;;;;;;;9.20;86.00;;;;;;4905118;29;20070;-66
2021/03/26 06:07:14;;;;;;;64.75;28.67;;;9.30;86.10;;;;;;4885358;29;19919;-66
2021/03/26 06:10:23;;;;;;;61.65;29.20;;;9.30;86.90;;;;;;4879103;29;20405;-68
2021/03/26 06:13:34;;;;;;;61.95;30.15;;;9.30;86.50;;;;;;4911635;29;20051;-67
2021/03/26 06:16:24;;;;;;;66.47;31.92;;;9.40;86.70;;;;;;4907294;29;20855;-67
2021/03/26 06:19:49;;;;;;;61.42;31.02;;;9.50;86.70;;;;;;4884973;29;20102;-66
2021/03/26 06:23:03;;;;;;;66.75;31.83;;;9.60;86.60;;;;;;4909517;29;20050;-67
2021/03/26 06:26:04;;;;;;;59.67;31.58;;;9.70;86.60;;;;;;4905414;29;20036;-67
2021/03/26 06:28:48;;;;;;;60.85;30.10;;;9.80;86.00;;;;;;4881686;29;20032;-67
2021/03/26 06:31:40;;;;;;;69.10;34.67;;;10.00;85.70;;;;;;4899163;29;20635;-64
2021/03/26 06:34:42;;;;;;;68.50;31.58;;;10.00;85.20;;;;;;4918254;29;20087;-66
2021/03/26 06:37:29;;;;;;;71.15;35.08;;;10.10;84.40;;;;;;4918487;29;20058;-68
2021/03/26 06:40:16;;;;;;;69.85;33.28;;;10.10;84.40;;;;;;4917331;29;20040;-61
2021/03/26 06:42:55;;;;;;;74.10;35.28;;;10.20;84.50;;;;;;4930238;29;20038;-62
2021/03/26 06:45:47;;;;;;;58.83;30.50;;;10.20;84.70;;;;;;4909077;29;20036;-66
2021/03/26 06:48:38;;;;;;;64.25;33.03;;;10.30;84.90;;;;;;4913450;29;20031;-66
2021/03/26 06:51:26;;;;;;;68.28;34.05;;;10.40;84.70;;;;;;4913326;29;20117;-65
2021/03/26 06:54:28;;;;;;;68.43;34.03;;;10.50;84.60;;;;;;4914691;29;20040;-66
2021/03/26 06:57:43;;;;;;;70.10;34.42;;;10.60;83.50;;;;;;4914675;29;20134;-66
2021/03/26 07:01:04;;;;;;;71.55;34.50;;;10.70;83.00;;;;;;4913631;29;20035;-66
2021/03/26 07:03:42;;;;;;;69.32;33.90;;;10.80;82.70;;;;;;4795066;29;20908;-66
2021/03/26 07:06:19;;;;;;;68.85;31.98;;;10.80;82.80;;;;;;4912429;29;20123;-66
2021/03/26 07:09:06;;;;;;;64.22;32.50;;;10.90;82.70;;;;;;4905494;29;20028;-66
2021/03/26 07:12:06;;;;;;;71.47;36.05;;;11.00;82.60;;;;;;4911752;29;20039;-66
2021/03/26 07:14:37;;;;;;;70.57;33.22;;;11.20;80.50;;;;;;4909489;29;20035;-67
2021/03/26 07:17:18;;;;;;;70.57;36.08;;;11.30;80.60;;;;;;4904348;29;20835;-65
2021/03/26 07:20:17;;;;;;;72.63;35.33;;;11.60;80.50;;;;;;4910657;29;20059;-66
2021/03/26 07:23:08;;;;;;;76.18;36.28;;;11.80;80.20;;;;;;4904226;29;20467;-66
2021/03/26 07:26:07;;;;;;;66.55;33.90;;;11.90;79.80;;;;;;4905352;29;20031;-66
2021/03/26 07:28:56;;;;;;;66.47;34.38;;;11.90;79.40;;;;;;4901780;29;20055;-66
2021/03/26 07:31:32;;;;;;;68.05;33.95;;;11.90;79.30;;;;;;4909049;29;20192;-66
2021/03/26 07:34:11;;;;;;;64.60;33.33;;;11.90;79.70;;;;;;4913305;29;20711;-67
2021/03/26 07:37:01;;;;;;;72.18;35.28;;;11.90;79.80;;;;;;4903011;29;20064;-66
2021/03/26 07:39:53;;;;;;;67.93;34.33;;;11.90;79.70;;;;;;4912832;29;20146;-66
2021/03/26 07:42:36;;;;;;;66.10;35.45;;;11.90;79.30;;;;;;4887414;29;20044;-66
2021/03/26 07:45:42;;;;;;;73.47;33.80;;;11.80;79.30;;;;;;4903986;29;20044;-66
2021/03/26 07:48:37;;;;;;;60.58;32.28;;;11.80;79.40;;;;;;4901729;29;20451;-66
2021/03/26 07:51:30;;;;;;;59.42;31.10;;;11.60;80.10;;;;;;4896743;29;20051;-66
2021/03/26 07:54:27;;;;;;;58.38;32.30;;;11.60;80.40;;;;;;4900399;29;20555;-67
2021/03/26 07:57:11;;;;;;;67.70;32.25;;;11.60;81.10;;;;;;4913185;29;20039;-66
2021/03/26 08:00:22;;;;;;;58.40;31.10;;;11.50;81.60;;;;;;4904047;29;20047;-66
2021/03/26 08:03:08;;;;;;;60.78;31.60;;;11.50;82.10;;;;;;4784464;29;20047;-66
2021/03/26 08:05:46;;;;;;;;;;;11.50;82.40;;;;;;4899879;29;20816;-66
2021/03/26 08:08:14;;;;;;;67.70;32.60;;;11.40;82.50;;;;;;4906815;29;19918;-66
2021/03/26 08:10:52;;;;;;;61.45;32.53;;;11.40;82.90;;;;;;4909506;29;20743;-66
2021/03/26 08:13:37;;;;;;;65.18;34.28;;;11.50;83.00;;;;;;4902771;29;20077;-66
2021/03/26 08:16:12;;;;;;;73.03;36.55;;;11.50;83.20;;;;;;4901230;29;20040;-66
2021/03/26 08:19:06;;;;;;;75.72;37.92;;;11.60;82.30;;;;;;4904369;29;20036;-66
2021/03/26 08:21:59;;;;;;;77.93;36.55;;;11.60;82.60;;;;;;4905330;29;20032;-67
2021/03/26 08:24:52;;;;;;;71.53;35.42;;;11.70;82.80;;;;;;4899837;29;20040;-66
2021/03/26 08:27:23;;;;;;;67.18;34.03;;;11.70;82.70;;;;;;4904145;29;20039;-67
2021/03/26 08:30:11;;;;;;;76.70;35.25;;;11.80;82.90;;;;;;4910628;29;20039;-66
2021/03/26 08:33:03;;;;;;;70.00;35.75;;;12.00;82.10;;;;;;4907865;29;20503;-67
2021/03/26 08:36:02;;;;;;;69.90;35.50;;;12.10;82.30;;;;;;4903926;29;20119;-66
2021/03/26 08:38:40;;;;;;;64.82;33.03;;;12.40;81.70;;;;;;4909607;29;20031;-66
2021/03/26 08:41:14;;;;;;;71.47;36.38;;;12.80;80.40;;;;;;4904636;29;20036;-66
2021/03/26 08:43:41;;;;;;;72.13;36.55;;;13.00;78.20;;;;;;4908839;29;20526;-66
2021/03/26 08:46:46;;;;;;;71.65;36.22;;;13.10;77.50;;;;;;4903867;29;20047;-66
2021/03/26 08:49:41;;;;;;;71.07;34.83;;;13.40;76.20;;;;;;4789283;29;20123;-65
2021/03/26 08:52:42;;;;;;;74.00;36.45;;;13.90;76.20;;;;;;4802467;29;20140;-65
2021/03/26 08:55:40;;;;;;;63.35;33.55;;;14.60;70.70;;;;;;4903797;29;20054;-67
2021/03/26 08:58:13;;;;;;;67.93;34.97;;;15.00;67.60;;;;;;4909227;29;20043;-66
2021/03/26 09:01:03;;;;;;;64.43;35.45;;;15.80;67.50;;;;;;4913468;29;20039;-66
2021/03/26 09:03:46;;;;;;;63.08;34.03;;;16.40;63.60;;;;;;4908496;29;21073;-66
2021/03/26 09:06:44;;;;;;;67.78;34.42;;;16.90;58.60;;;;;;4904097;29;20543;-66
2021/03/26 09:09:12;;;;;;;64.10;33.45;;;17.20;60.30;;;;;;4904030;29;20036;-66
2021/03/26 09:11:50;;;;;;;64.90;34.08;;;17.30;58.80;;;;;;4900006;29;20840;-66
2021/03/26 09:15:01;;;;;;;57.90;32.42;;;17.40;59.00;;;;;;4901943;29;20047;-66
2021/03/26 09:17:51;;;;;;;52.63;30.45;;;17.50;55.40;;;;;;4859077;29;20043;-65
2021/03/26 09:20:47;;;;;;;56.70;31.75;;;17.30;55.60;;;;;;4907855;29;20089;-66
2021/03/26 09:23:36;;;;;;;59.67;32.85;;;16.80;57.40;;;;;;4911850;29;20039;-66
2021/03/26 09:26:34;;;;;;;60.72;33.50;;;16.50;58.50;;;;;;4910664;29;20673;-67
2021/03/26 09:29:07;;;;;;;57.00;30.92;;;16.10;59.20;;;;;;4911529;29;21010;-67
2021/03/26 09:31:53;;;;;;;59.80;31.90;;;16.00;58.30;;;;;;4904661;29;20142;-66
2021/03/26 09:34:29;;;;;;;60.53;31.67;;;16.10;57.50;;;;;;4916445;29;20043;-66
2021/03/26 09:37:25;;;;;;;54.83;29.83;;;16.00;57.70;;;;;;4916800;29;20139;-65
2021/03/26 09:39:58;;;;;;;56.17;31.20;;;15.70;56.80;;;;;;4908042;29;20056;-68
2021/03/26 09:42:38;;;;;;;57.22;31.52;;;15.50;57.90;;;;;;4900209;29;20676;-66
2021/03/26 09:45:09;;;;;;;59.50;32.47;;;15.30;58.20;;;;;;4913800;29;20036;-66
2021/03/26 09:47:48;;;;;;;62.88;32.03;;;15.20;60.30;;;;;;4913801;29;20091;-66
2021/03/26 09:50:35;;;;;;;59.22;32.00;;;15.20;59.70;;;;;;4912656;29;20043;-66
2021/03/26 09:53:12;;;;;;;70.13;33.95;;;15.10;62.00;;;;;;4911268;29;20040;-65
2021/03/26 09:55:42;;;;;;;60.60;31.88;;;15.30;61.20;;;;;;4910473;29;20087;-66
2021/03/26 09:58:35;;;;;;;63.40;33.83;;;15.50;61.90;;;;;;4907492;29;20038;-67
2021/03/26 10:01:19;;;;;;;57.45;30.73;;;15.60;60.00;;;;;;4903738;29;20098;-66
2021/03/26 10:04:03;;;;;;;49.63;28.90;;;15.80;60.60;;;;;;4902237;29;20038;-66
2021/03/26 10:07:05;;;;;;;53.70;29.63;;;16.00;59.90;;;;;;4899781;29;20091;-66
2021/03/26 10:09:43;;;;;;;50.95;28.02;;;16.10;59.10;;;;;;4906839;29;20492;-67
2021/03/26 10:12:20;;;;;;;53.70;30.17;;;16.10;58.90;;;;;;4905888;29;20044;-67
2021/03/26 10:15:00;;;;;;;60.67;31.63;;;16.20;58.90;;;;;;4909033;29;20044;-67
2021/03/26 10:17:44;;;;;;;57.50;32.55;;;16.10;57.70;;;;;;4910156;29;20040;-67
2021/03/26 10:20:13;;;;;;;61.55;33.75;;;15.80;58.20;;;;;;4910654;29;20083;-67
2021/03/26 10:22:50;;;;;;;63.55;32.60;;;15.80;60.00;;;;;;4892973;29;20039;-67
2021/03/26 10:25:22;;;;;;;54.55;30.77;;;15.70;58.90;;;;;;4911924;29;20054;-67
2021/03/26 10:28:08;;;;;;;49.45;28.77;;;15.60;59.40;;;;;;4905226;29;20036;-67
2021/03/26 10:30:41;;;;;;;54.03;28.67;;;15.50;61.40;;;;;;4900504;29;20059;-66
2021/03/26 10:33:11;;;;;;;57.50;30.50;;;15.50;60.40;;;;;;4898098;29;20078;-68
2021/03/26 10:36:05;;;;;;;57.45;31.02;;;15.40;60.50;;;;;;4915791;29;20043;-67
2021/03/26 10:38:52;;;;;;;58.08;30.48;;;15.40;62.30;;;;;;4909595;29;20692;-68
2021/03/26 10:41:43;;;;;;;57.00;31.35;;;15.50;61.70;;;;;;4905950;29;20404;-66
2021/03/26 10:44:32;;;;;;;54.17;30.40;;;15.60;60.20;;;;;;4906596;29;20031;-67
2021/03/26 10:47:16;;;;;;;52.70;29.88;;;15.70;60.10;;;;;;4907631;29;20039;-67
2021/03/26 10:49:56;;;;;;;67.47;33.20;;;15.80;59.80;;;;;;4904497;29;20040;-66
2021/03/26 10:52:33;;;;;;;60.33;32.40;;;16.00;58.40;;;;;;4909881;29;20151;-67
2021/03/26 10:55:25;;;;;;;56.50;30.67;;;16.10;57.90;;;;;;4900735;29;20119;-66
2021/03/26 10:58:24;;;;;;;57.58;31.27;;;16.30;58.80;;;;;;4917121;29;20054;-66
2021/03/26 11:01:12;;;;;;;54.28;30.75;;;16.40;57.50;;;;;;4883593;29;20440;-66
2021/03/26 11:03:58;;;;;;;54.80;31.38;;;16.50;57.10;;;;;;4903793;29;20036;-66
2021/03/26 11:06:45;;;;;;;51.53;29.30;;;16.40;57.10;;;;;;4902695;29;20500;-66
2021/03/26 11:09:23;;;;;;;53.60;28.70;;;16.40;57.40;;;;;;4907108;29;20468;-67
2021/03/26 11:12:24;;;;;;;61.47;32.80;;;16.40;57.00;;;;;;4908512;29;20031;-66
2021/03/26 11:15:12;;;;;;;58.70;31.92;;;16.60;59.70;;;;;;4906937;29;20040;-66
2021/03/26 11:17:55;;;;;;;52.67;30.52;;;16.60;57.40;;;;;;4912108;29;20031;-66
2021/03/26 11:20:40;;;;;;;57.30;31.70;;;16.70;59.00;;;;;;4902718;29;20079;-66
2021/03/26 11:23:25;;;;;;;52.27;30.43;;;16.80;61.20;;;;;;4901574;29;20042;-68
2021/03/26 11:26:05;;;;;;;60.42;31.33;;;16.90;60.80;;;;;;4897350;29;20080;-67
2021/03/26 11:29:12;;;;;;;62.45;32.88;;;17.00;59.40;;;;;;4915949;29;20122;-66
2021/03/26 11:32:19;;;;;;;53.50;29.63;;;17.00;59.60;;;;;;4895347;29;20051;-66
2021/03/26 11:34:56;;;;;;;50.10;29.08;;;17.10;58.20;;;;;;4881844;29;20158;-66
2021/03/26 11:37:34;;;;;;;55.53;30.60;;;17.10;58.60;;;;;;4909415;29;20763;-66
2021/03/26 11:39:59;;;;;;;55.53;31.75;;;17.20;58.70;;;;;;4909722;29;20070;-66
2021/03/26 11:42:25;;;;;;;57.50;32.10;;;17.40;58.30;;;;;;4911867;29;20551;-66
2021/03/26 11:44:55;;;;;;;54.28;31.13;;;17.40;58.30;;;;;;4908280;29;20032;-66
2021/03/26 11:47:27;;;;;;;51.10;30.30;;;17.50;57.70;;;;;;4904697;29;20044;-66
2021/03/26 11:50:20;;;;;;;59.25;31.92;;;17.60;57.10;;;;;;4917114;29;20471;-66
2021/03/26 11:53:05;;;;;;;53.67;30.17;;;17.60;56.60;;;;;;4917448;29;20106;-68
2021/03/26 11:55:38;;;;;;;56.97;31.17;;;17.50;56.00;;;;;;4914648;29;20043;-67
2021/03/26 11:58:14;;;;;;;53.28;30.00;;;17.50;57.30;;;;;;4913682;29;20040;-67
2021/03/26 12:00:41;;;;;;;;;;;17.50;57.30;;;;;;4906216;29;20059;-67
2021/03/26 12:03:33;;;;;;;56.35;31.35;;;17.50;56.00;;;;;;4907770;29;19918;-67
2021/03/26 12:06:10;;;;;;;57.30;31.38;;;17.40;57.30;;;;;;4907835;29;20040;-68
2021/03/26 12:08:50;;;;;;;49.20;29.13;;;17.40;56.10;;;;;;4909001;29;20091;-68
2021/03/26 12:11:33;;;;;;;49.75;29.23;;;17.40;55.60;;;;;;4905425;29;20056;-67
2021/03/26 12:14:12;;;;;;;57.47;32.53;;;17.30;56.70;;;;;;4911089;29;20047;-67
2021/03/26 12:17:05;;;;;;;53.70;29.58;;;17.30;57.60;;;;;;4919676;29;20040;-65
2021/03/26 12:19:35;;;;;;;60.75;33.95;;;17.50;56.00;;;;;;4896323;29;20171;-65
2021/03/26 12:22:12;;;;;;;58.40;31.50;;;17.50;56.90;;;;;;4905452;29;20126;-68
2021/03/26 12:24:41;;;;;;;52.00;29.10;;;17.50;56.10;;;;;;4914196;29;20031;-66
2021/03/26 12:27:41;;;;;;;57.60;31.08;;;17.40;54.70;;;;;;4905814;29;20032;-67
2021/03/26 12:30:34;;;;;;;58.08;31.90;;;17.40;55.00;;;;;;4911072;29;20050;-67
2021/03/26 12:33:01;;;;;;;54.13;29.10;;;17.20;55.00;;;;;;4909405;29;20486;-66
2021/03/26 12:35:35;;;;;;;49.58;27.38;;;17.10;55.40;;;;;;4907323;29;20109;-67
2021/03/26 12:38:29;;;;;;;51.17;29.35;;;17.10;56.40;;;;;;4916614;29;20043;-70
2021/03/26 12:40:55;;;;;;;56.55;31.13;;;17.20;55.50;;;;;;4875285;29;20062;-67
2021/03/26 12:43:29;;;;;;;59.03;30.65;;;17.30;55.30;;;;;;4920547;29;20448;-71
2021/03/26 12:46:00;;;;;;;54.38;30.17;;;17.40;55.70;;;;;;4918565;29;20054;-66
2021/03/26 12:48:38;;;;;;;56.42;31.73;;;17.50;55.20;;;;;;4917257;29;20046;-67
2021/03/26 12:51:15;;;;;;;58.15;30.52;;;17.60;54.40;;;;;;4906973;29;20087;-66
2021/03/26 12:53:49;;;;;;;62.47;34.67;;;17.60;55.10;;;;;;4909330;29;20032;-68
2021/03/26 12:56:23;;;;;;;49.80;27.73;;;17.60;56.70;;;;;;4924713;28;20102;-66
2021/03/26 12:59:17;;;;;;;52.63;28.27;;;17.60;56.10;;;;;;4909464;29;20032;-66
2021/03/26 13:01:52;;;;;;;48.05;27.10;;;17.60;55.20;;;;;;4914041;29;20050;-66
2021/03/26 13:04:33;;;;;;;52.38;27.40;;;17.70;55.00;;;;;;4916616;29;20813;-66
2021/03/26 13:07:04;;;;;;;51.55;28.10;;;17.80;54.90;;;;;;4910930;29;20027;-66
2021/03/26 13:09:47;;;;;;;47.47;27.65;;;17.90;54.50;;;;;;4916064;29;20871;-66
2021/03/26 13:12:30;;;;;;;49.15;27.60;;;18.20;54.20;;;;;;4919811;29;20036;-66
2021/03/26 13:15:18;;;;;;;50.67;27.55;;;18.50;53.20;;;;;;4917347;29;20615;-66
2021/03/26 13:17:45;;;;;;;44.90;25.25;;;18.70;51.70;;;;;;4916064;29;20564;-67
2021/03/26 13:20:18;;;;;;;45.40;25.92;;;18.80;51.90;;;;;;4913648;29;20134;-66
2021/03/26 13:22:55;;;;;;;49.85;28.20;;;18.80;52.00;;;;;;4912077;29;20049;-66
2021/03/26 13:25:27;;;;;;;51.90;28.77;;;18.80;50.90;;;;;;4908452;29;20035;-66
2021/03/26 13:27:55;;;;;;;51.72;27.83;;;18.80;51.10;;;;;;4915172;29;20559;-67
2021/03/26 13:30:51;;;;;;;49.67;27.58;;;18.70;51.50;;;;;;4910226;29;20028;-66
2021/03/26 13:33:39;;;;;;;52.25;27.67;;;18.60;52.00;;;;;;4918116;29;20031;-66
2021/03/26 13:36:24;;;;;;;50.03;28.70;;;18.60;52.20;;;;;;4917704;29;20118;-66
2021/03/26 13:38:57;;;;;;;43.50;25.60;;;18.60;51.70;;;;;;4920011;29;20755;-66
2021/03/26 13:42:00;;;;;;;49.30;27.45;;;18.70;52.00;;;;;;4916890;29;20126;-63
2021/03/26 13:44:34;;;;;;;50.38;28.42;;;18.50;52.10;;;;;;4898591;29;20035;-62
2021/03/26 13:47:07;;;;;;;49.25;28.70;;;18.50;52.00;;;;;;4905892;29;20216;-62
2021/03/26 13:49:34;;;;;;;44.53;25.58;;;18.60;51.20;;;;;;4909451;29;20036;-62